Snoqualmie River: South Fork station

back to: Snoqualmie river
South Fork station Summary - (NOAA Hydrograph: GARW1)
Latest reading:
Sat01/19 05:15 am 11.01 ft 300 cfs (+12/hr)
Past 24hr max:
Sat01/19 05:15 am 11.01 ft 300 cfs
Forecasted crests: (published Fri 01/18/19 09:02 pm)
Sat01/19 04:00 pm 11.36 ft 432 cfs
Wed01/23 10:00 am 11.6 ft 535 cfs

South Fork station Details

Latest Readings

Last 100 Readings:
Sat01/19 05:15 am 11.01 ft 300 cfs
Sat01/19 05:00 am 11.0 ft 297 cfs
Sat01/19 04:45 am 10.97 ft 287 cfs
Sat01/19 04:30 am 10.95 ft 280 cfs
Sat01/19 04:15 am 10.93 ft 274 cfs
Sat01/19 04:00 am 10.92 ft 270 cfs
Sat01/19 03:45 am 10.91 ft 267 cfs
Sat01/19 03:30 am 10.89 ft 261 cfs
Sat01/19 03:15 am 10.89 ft 261 cfs
Sat01/19 03:00 am 10.88 ft 258 cfs
Sat01/19 02:45 am 10.88 ft 258 cfs
Sat01/19 02:30 am 10.88 ft 258 cfs
Sat01/19 02:15 am 10.87 ft 254 cfs
Sat01/19 02:00 am 10.86 ft 251 cfs
Sat01/19 01:45 am 10.86 ft 251 cfs
Sat01/19 01:30 am 10.86 ft 251 cfs
Sat01/19 01:15 am 10.85 ft 248 cfs
Sat01/19 01:00 am 10.83 ft 242 cfs
Sat01/19 12:45 am 10.84 ft 245 cfs
Sat01/19 12:30 am 10.83 ft 242 cfs
Sat01/19 12:15 am 10.82 ft 239 cfs
Sat01/19 12:00 am 10.8 ft 233 cfs
Fri01/18 11:45 pm 10.79 ft 230 cfs
Fri01/18 11:30 pm 10.79 ft 230 cfs
Fri01/18 11:15 pm 10.78 ft 227 cfs
Fri01/18 11:00 pm 10.77 ft 224 cfs
Fri01/18 10:45 pm 10.77 ft 224 cfs
Fri01/18 10:30 pm 10.75 ft 219 cfs
Fri01/18 10:15 pm 10.74 ft 216 cfs
Fri01/18 10:00 pm 10.73 ft 213 cfs
Fri01/18 09:45 pm 10.71 ft 207 cfs
Fri01/18 09:30 pm 10.71 ft 207 cfs
Fri01/18 09:15 pm 10.69 ft 202 cfs
Fri01/18 09:00 pm 10.69 ft 202 cfs
Fri01/18 08:45 pm 10.68 ft 199 cfs
Fri01/18 08:30 pm 10.67 ft 196 cfs
Fri01/18 08:15 pm 10.67 ft 196 cfs
Fri01/18 08:00 pm 10.67 ft 196 cfs
Fri01/18 07:45 pm 10.66 ft 193 cfs
Fri01/18 07:30 pm 10.66 ft 193 cfs
Fri01/18 07:15 pm 10.65 ft 191 cfs
Fri01/18 07:00 pm 10.65 ft 191 cfs
Fri01/18 06:45 pm 10.64 ft 188 cfs
Fri01/18 06:30 pm 10.65 ft 191 cfs
Fri01/18 06:15 pm 10.64 ft 188 cfs
Fri01/18 06:00 pm 10.64 ft 188 cfs
Fri01/18 05:45 pm 10.64 ft 188 cfs
Fri01/18 05:30 pm 10.65 ft 191 cfs
Fri01/18 05:15 pm 10.64 ft 188 cfs
Fri01/18 05:00 pm 10.64 ft 188 cfs
Fri01/18 04:45 pm 10.65 ft 191 cfs
Fri01/18 04:30 pm 10.64 ft 188 cfs
Fri01/18 04:15 pm 10.64 ft 188 cfs
Fri01/18 04:00 pm 10.64 ft 188 cfs
Fri01/18 03:45 pm 10.65 ft 191 cfs
Fri01/18 03:30 pm 10.65 ft 191 cfs
Fri01/18 03:15 pm 10.65 ft 191 cfs
Fri01/18 03:00 pm 10.65 ft 191 cfs
Fri01/18 02:45 pm 10.65 ft 191 cfs
Fri01/18 02:30 pm 10.65 ft 191 cfs
Fri01/18 02:15 pm 10.65 ft 191 cfs
Fri01/18 02:00 pm 10.66 ft 193 cfs
Fri01/18 01:45 pm 10.66 ft 193 cfs
Fri01/18 01:30 pm 10.66 ft 193 cfs
Fri01/18 01:15 pm 10.66 ft 193 cfs
Fri01/18 01:00 pm 10.66 ft 193 cfs
Fri01/18 12:45 pm 10.67 ft 196 cfs
Fri01/18 12:30 pm 10.67 ft 196 cfs
Fri01/18 12:15 pm 10.67 ft 196 cfs
Fri01/18 12:00 pm 10.67 ft 196 cfs
Fri01/18 11:45 am 10.67 ft 196 cfs
Fri01/18 11:30 am 10.68 ft 199 cfs
Fri01/18 11:15 am 10.68 ft 199 cfs
Fri01/18 11:00 am 10.68 ft 199 cfs
Fri01/18 10:45 am 10.68 ft 199 cfs
Fri01/18 10:30 am 10.68 ft 199 cfs
Fri01/18 10:15 am 10.69 ft 202 cfs
Fri01/18 10:00 am 10.69 ft 202 cfs
Fri01/18 09:45 am 10.69 ft 202 cfs
Fri01/18 09:30 am 10.69 ft 202 cfs
Fri01/18 09:15 am 10.69 ft 202 cfs
Fri01/18 09:00 am 10.7 ft 204 cfs
Fri01/18 08:45 am 10.7 ft 204 cfs
Fri01/18 08:30 am 10.7 ft 204 cfs
Fri01/18 08:15 am 10.71 ft 207 cfs
Fri01/18 08:00 am 10.71 ft 207 cfs
Fri01/18 07:45 am 10.71 ft 207 cfs
Fri01/18 07:30 am 10.72 ft 210 cfs
Fri01/18 07:15 am 10.71 ft 207 cfs
Fri01/18 07:00 am 10.72 ft 210 cfs
Fri01/18 06:45 am 10.72 ft 210 cfs
Fri01/18 06:30 am 10.72 ft 210 cfs
Fri01/18 06:15 am 10.71 ft 207 cfs
Fri01/18 06:00 am 10.72 ft 210 cfs
Fri01/18 05:45 am 10.71 ft 207 cfs
Fri01/18 05:30 am 10.71 ft 207 cfs
Fri01/18 05:15 am 10.7 ft 204 cfs
Fri01/18 05:00 am 10.7 ft 204 cfs
Fri01/18 04:45 am 10.7 ft 204 cfs
Fri01/18 04:30 am 10.69 ft 202 cfs

Latest Forecasts

Currently Forecasted Readings:
Fri01/18 10:00 pm 10.7 ft 203 cfs
Sat01/19 04:00 am 11.15 ft 349 cfs
Sat01/19 10:00 am 11.34 ft 422 cfs
Sat01/19 04:00 pm 11.36 ft 432 cfs
Sat01/19 10:00 pm 11.25 ft 388 cfs
Sun01/20 04:00 am 11.09 ft 327 cfs
Sun01/20 10:00 am 10.96 ft 284 cfs
Sun01/20 04:00 pm 10.91 ft 266 cfs
Sun01/20 10:00 pm 10.88 ft 259 cfs
Mon01/21 04:00 am 10.85 ft 248 cfs
Mon01/21 10:00 am 10.8 ft 233 cfs
Mon01/21 04:00 pm 10.75 ft 220 cfs
Mon01/21 10:00 pm 10.72 ft 209 cfs
Tue01/22 04:00 am 10.69 ft 200 cfs
Tue01/22 10:00 am 10.66 ft 193 cfs
Tue01/22 04:00 pm 10.83 ft 242 cfs
Tue01/22 10:00 pm 11.24 ft 382 cfs
Wed01/23 04:00 am 11.55 ft 514 cfs
Wed01/23 10:00 am 11.6 ft 535 cfs
Wed01/23 04:00 pm 11.51 ft 495 cfs
Wed01/23 10:00 pm 11.29 ft 403 cfs
Thu01/24 04:00 am 11.14 ft 345 cfs
Thu01/24 10:00 am 11.01 ft 301 cfs
Thu01/24 04:00 pm 10.94 ft 276 cfs
Thu01/24 10:00 pm 10.89 ft 259 cfs
Fri01/25 04:00 am 10.85 ft 247 cfs
Fri01/25 10:00 am 10.81 ft 235 cfs
Fri01/25 04:00 pm 10.77 ft 224 cfs
Fri01/25 10:00 pm 10.74 ft 216 cfs
Sat01/26 04:00 am 10.71 ft 209 cfs
Sat01/26 10:00 am 10.69 ft 200 cfs
Sat01/26 04:00 pm 10.66 ft 193 cfs
Sat01/26 10:00 pm 10.64 ft 187 cfs
Sun01/27 04:00 am 10.62 ft 183 cfs
Sun01/27 10:00 am 10.6 ft 177 cfs
Sun01/27 04:00 pm 10.58 ft 172 cfs
Sun01/27 10:00 pm 10.56 ft 169 cfs
Mon01/28 04:00 am 10.56 ft 168 cfs

Snoqualmie River flood gauge data supplied by the
National Weather Service Northwest River Forecast Center.

Sign up for Floodzilla alerts.